sensor_id;sensor_type;location;lat;lon;timestamp;P1;durP1;ratioP1;P2;durP2;ratioP2
72286;SDS011;60221;45.696;16.076;2023-04-03T00:01:56;4.80;;;1.10;;
72286;SDS011;60221;45.696;16.076;2023-04-03T00:04:22;5.90;;;0.90;;
72286;SDS011;60221;45.696;16.076;2023-04-03T00:06:49;5.20;;;1.00;;
72286;SDS011;60221;45.696;16.076;2023-04-03T00:09:16;4.30;;;0.60;;
72286;SDS011;60221;45.696;16.076;2023-04-03T00:11:43;3.50;;;0.50;;
72286;SDS011;60221;45.696;16.076;2023-04-03T00:14:10;4.50;;;0.90;;
72286;SDS011;60221;45.696;16.076;2023-04-03T00:16:36;3.70;;;0.60;;
72286;SDS011;60221;45.696;16.076;2023-04-03T00:19:03;3.90;;;0.90;;
72286;SDS011;60221;45.696;16.076;2023-04-03T00:21:30;3.60;;;0.60;;
72286;SDS011;60221;45.696;16.076;2023-04-03T00:23:58;4.30;;;0.90;;
72286;SDS011;60221;45.696;16.076;2023-04-03T00:26:24;2.90;;;0.40;;
72286;SDS011;60221;45.696;16.076;2023-04-03T00:28:51;3.80;;;0.80;;
72286;SDS011;60221;45.696;16.076;2023-04-03T00:31:18;3.50;;;0.50;;
72286;SDS011;60221;45.696;16.076;2023-04-03T00:33:46;4.10;;;0.70;;
72286;SDS011;60221;45.696;16.076;2023-04-03T00:36:13;3.80;;;0.60;;
72286;SDS011;60221;45.696;16.076;2023-04-03T00:38:40;3.60;;;0.60;;
72286;SDS011;60221;45.696;16.076;2023-04-03T00:41:07;3.70;;;0.60;;
72286;SDS011;60221;45.696;16.076;2023-04-03T00:43:33;3.00;;;0.50;;
72286;SDS011;60221;45.696;16.076;2023-04-03T00:46:00;3.30;;;0.50;;
72286;SDS011;60221;45.696;16.076;2023-04-03T00:48:29;4.20;;;0.40;;
72286;SDS011;60221;45.696;16.076;2023-04-03T00:50:57;4.60;;;0.60;;
72286;SDS011;60221;45.696;16.076;2023-04-03T00:53:25;3.00;;;0.40;;
72286;SDS011;60221;45.696;16.076;2023-04-03T00:55:53;4.10;;;0.40;;
72286;SDS011;60221;45.696;16.076;2023-04-03T00:58:22;2.80;;;0.40;;
72286;SDS011;60221;45.696;16.076;2023-04-03T01:00:52;4.60;;;0.60;;
72286;SDS011;60221;45.696;16.076;2023-04-03T01:03:24;3.80;;;0.80;;
72286;SDS011;60221;45.696;16.076;2023-04-03T01:05:52;3.50;;;0.60;;
72286;SDS011;60221;45.696;16.076;2023-04-03T01:08:18;3.30;;;0.40;;
72286;SDS011;60221;45.696;16.076;2023-04-03T01:10:48;4.30;;;0.70;;
72286;SDS011;60221;45.696;16.076;2023-04-03T01:13:25;4.00;;;0.80;;
72286;SDS011;60221;45.696;16.076;2023-04-03T01:15:53;5.20;;;0.60;;
72286;SDS011;60221;45.696;16.076;2023-04-03T01:18:20;3.50;;;0.50;;
72286;SDS011;60221;45.696;16.076;2023-04-03T01:25:50;3.80;;;0.40;;
72286;SDS011;60221;45.696;16.076;2023-04-03T01:28:28;3.60;;;0.70;;
72286;SDS011;60221;45.696;16.076;2023-04-03T01:33:42;2.70;;;0.30;;
72286;SDS011;60221;45.696;16.076;2023-04-03T01:36:10;3.30;;;0.20;;
72286;SDS011;60221;45.696;16.076;2023-04-03T01:38:39;3.90;;;0.40;;
72286;SDS011;60221;45.696;16.076;2023-04-03T01:41:06;3.50;;;0.30;;
72286;SDS011;60221;45.696;16.076;2023-04-03T01:43:33;2.20;;;0.20;;
72286;SDS011;60221;45.696;16.076;2023-04-03T01:46:00;2.60;;;0.20;;
72286;SDS011;60221;45.696;16.076;2023-04-03T01:48:26;2.80;;;0.20;;
72286;SDS011;60221;45.696;16.076;2023-04-03T01:50:53;2.60;;;0.20;;
72286;SDS011;60221;45.696;16.076;2023-04-03T01:53:20;2.40;;;0.10;;
72286;SDS011;60221;45.696;16.076;2023-04-03T01:55:48;2.70;;;0.10;;
72286;SDS011;60221;45.696;16.076;2023-04-03T01:58:14;2.90;;;0.20;;
72286;SDS011;60221;45.696;16.076;2023-04-03T02:00:41;1.40;;;0.10;;
72286;SDS011;60221;45.696;16.076;2023-04-03T02:03:09;2.70;;;0.20;;
72286;SDS011;60221;45.696;16.076;2023-04-03T02:05:36;2.50;;;0.20;;
72286;SDS011;60221;45.696;16.076;2023-04-03T02:08:03;2.00;;;0.10;;
72286;SDS011;60221;45.696;16.076;2023-04-03T02:10:30;2.10;;;0.10;;
72286;SDS011;60221;45.696;16.076;2023-04-03T02:12:57;2.20;;;0.10;;
72286;SDS011;60221;45.696;16.076;2023-04-03T02:15:24;3.00;;;0.10;;
72286;SDS011;60221;45.696;16.076;2023-04-03T02:17:51;3.30;;;0.30;;
72286;SDS011;60221;45.696;16.076;2023-04-03T02:20:19;2.40;;;0.10;;
72286;SDS011;60221;45.696;16.076;2023-04-03T02:22:46;1.60;;;0.10;;
72286;SDS011;60221;45.696;16.076;2023-04-03T02:25:13;2.70;;;0.20;;
72286;SDS011;60221;45.696;16.076;2023-04-03T02:27:40;2.00;;;0.10;;
72286;SDS011;60221;45.696;16.076;2023-04-03T02:30:08;1.90;;;0.20;;
72286;SDS011;60221;45.696;16.076;2023-04-03T02:32:37;2.70;;;0.10;;
72286;SDS011;60221;45.696;16.076;2023-04-03T02:35:04;2.30;;;0.20;;
72286;SDS011;60221;45.696;16.076;2023-04-03T02:37:32;2.40;;;0.10;;
72286;SDS011;60221;45.696;16.076;2023-04-03T02:39:59;3.10;;;0.10;;
72286;SDS011;60221;45.696;16.076;2023-04-03T02:42:27;2.90;;;0.10;;
72286;SDS011;60221;45.696;16.076;2023-04-03T02:44:53;1.70;;;0.10;;
72286;SDS011;60221;45.696;16.076;2023-04-03T02:47:20;2.30;;;0.10;;
72286;SDS011;60221;45.696;16.076;2023-04-03T02:49:47;2.20;;;0.20;;
72286;SDS011;60221;45.696;16.076;2023-04-03T02:52:14;2.00;;;0.10;;
72286;SDS011;60221;45.696;16.076;2023-04-03T02:54:41;2.20;;;0.10;;
72286;SDS011;60221;45.696;16.076;2023-04-03T02:57:08;2.10;;;0.10;;
72286;SDS011;60221;45.696;16.076;2023-04-03T02:59:36;1.30;;;0.10;;
72286;SDS011;60221;45.696;16.076;2023-04-03T03:02:03;1.50;;;0.10;;
72286;SDS011;60221;45.696;16.076;2023-04-03T03:04:30;2.80;;;0.20;;
72286;SDS011;60221;45.696;16.076;2023-04-03T03:06:56;1.80;;;0.10;;
72286;SDS011;60221;45.696;16.076;2023-04-03T03:09:23;2.70;;;0.10;;
72286;SDS011;60221;45.696;16.076;2023-04-03T03:11:50;2.30;;;0.10;;
72286;SDS011;60221;45.696;16.076;2023-04-03T03:14:17;1.20;;;0.10;;
72286;SDS011;60221;45.696;16.076;2023-04-03T03:16:44;1.50;;;0.10;;
72286;SDS011;60221;45.696;16.076;2023-04-03T03:19:10;1.80;;;0.10;;
72286;SDS011;60221;45.696;16.076;2023-04-03T03:21:37;2.20;;;0.20;;
72286;SDS011;60221;45.696;16.076;2023-04-03T03:24:04;2.10;;;0.10;;
72286;SDS011;60221;45.696;16.076;2023-04-03T03:26:32;1.70;;;0.20;;
72286;SDS011;60221;45.696;16.076;2023-04-03T03:29:01;1.80;;;0.10;;
72286;SDS011;60221;45.696;16.076;2023-04-03T03:31:28;3.60;;;0.20;;
72286;SDS011;60221;45.696;16.076;2023-04-03T03:33:56;2.50;;;0.10;;
72286;SDS011;60221;45.696;16.076;2023-04-03T03:36:22;2.90;;;0.10;;
72286;SDS011;60221;45.696;16.076;2023-04-03T03:38:49;2.10;;;0.20;;
72286;SDS011;60221;45.696;16.076;2023-04-03T03:41:16;2.30;;;0.10;;
72286;SDS011;60221;45.696;16.076;2023-04-03T03:43:43;2.50;;;0.20;;
72286;SDS011;60221;45.696;16.076;2023-04-03T03:46:11;1.70;;;0.10;;
72286;SDS011;60221;45.696;16.076;2023-04-03T03:48:38;2.10;;;0.10;;
72286;SDS011;60221;45.696;16.076;2023-04-03T03:51:05;4.10;;;0.30;;
72286;SDS011;60221;45.696;16.076;2023-04-03T03:53:35;2.70;;;0.10;;
72286;SDS011;60221;45.696;16.076;2023-04-03T03:56:05;1.90;;;0.10;;
72286;SDS011;60221;45.696;16.076;2023-04-03T03:58:33;2.20;;;0.10;;
72286;SDS011;60221;45.696;16.076;2023-04-03T04:01:01;2.00;;;0.10;;
72286;SDS011;60221;45.696;16.076;2023-04-03T04:03:29;1.50;;;0.10;;
72286;SDS011;60221;45.696;16.076;2023-04-03T04:05:56;2.30;;;0.20;;
72286;SDS011;60221;45.696;16.076;2023-04-03T04:08:23;2.40;;;0.10;;
72286;SDS011;60221;45.696;16.076;2023-04-03T04:10:50;2.60;;;0.10;;
72286;SDS011;60221;45.696;16.076;2023-04-03T04:13:17;2.20;;;0.10;;
72286;SDS011;60221;45.696;16.076;2023-04-03T04:15:44;3.90;;;0.20;;
72286;SDS011;60221;45.696;16.076;2023-04-03T04:18:11;3.00;;;0.20;;
72286;SDS011;60221;45.696;16.076;2023-04-03T04:20:39;1.10;;;0.10;;
72286;SDS011;60221;45.696;16.076;2023-04-03T04:23:06;1.50;;;0.10;;
72286;SDS011;60221;45.696;16.076;2023-04-03T04:25:34;2.80;;;0.10;;
72286;SDS011;60221;45.696;16.076;2023-04-03T04:28:02;1.80;;;0.10;;
72286;SDS011;60221;45.696;16.076;2023-04-03T04:30:28;4.30;;;0.20;;
72286;SDS011;60221;45.696;16.076;2023-04-03T04:32:56;2.90;;;0.30;;
72286;SDS011;60221;45.696;16.076;2023-04-03T04:35:24;2.50;;;0.10;;
72286;SDS011;60221;45.696;16.076;2023-04-03T04:37:51;3.30;;;0.10;;
72286;SDS011;60221;45.696;16.076;2023-04-03T04:40:19;1.70;;;0.10;;
72286;SDS011;60221;45.696;16.076;2023-04-03T04:42:45;2.00;;;0.10;;
72286;SDS011;60221;45.696;16.076;2023-04-03T04:45:12;2.50;;;0.10;;
72286;SDS011;60221;45.696;16.076;2023-04-03T04:47:40;2.20;;;0.10;;
72286;SDS011;60221;45.696;16.076;2023-04-03T04:50:08;2.70;;;0.10;;
72286;SDS011;60221;45.696;16.076;2023-04-03T04:52:36;2.70;;;0.10;;
72286;SDS011;60221;45.696;16.076;2023-04-03T04:55:03;2.00;;;0.20;;
72286;SDS011;60221;45.696;16.076;2023-04-03T04:57:31;1.70;;;0.10;;
72286;SDS011;60221;45.696;16.076;2023-04-03T04:59:58;2.20;;;0.20;;
72286;SDS011;60221;45.696;16.076;2023-04-03T05:02:25;1.60;;;0.10;;
72286;SDS011;60221;45.696;16.076;2023-04-03T05:04:52;2.10;;;0.20;;
72286;SDS011;60221;45.696;16.076;2023-04-03T05:07:22;1.80;;;0.10;;
72286;SDS011;60221;45.696;16.076;2023-04-03T05:09:49;2.00;;;0.20;;
72286;SDS011;60221;45.696;16.076;2023-04-03T05:12:16;1.80;;;0.10;;
72286;SDS011;60221;45.696;16.076;2023-04-03T05:14:48;2.30;;;0.30;;
72286;SDS011;60221;45.696;16.076;2023-04-03T05:17:15;2.40;;;0.20;;
72286;SDS011;60221;45.696;16.076;2023-04-03T05:19:45;2.90;;;0.30;;
72286;SDS011;60221;45.696;16.076;2023-04-03T05:22:13;1.70;;;0.10;;
72286;SDS011;60221;45.696;16.076;2023-04-03T05:24:40;2.90;;;0.30;;
72286;SDS011;60221;45.696;16.076;2023-04-03T05:27:07;2.10;;;0.30;;
72286;SDS011;60221;45.696;16.076;2023-04-03T05:29:37;3.70;;;0.60;;
72286;SDS011;60221;45.696;16.076;2023-04-03T05:32:04;2.20;;;0.20;;
72286;SDS011;60221;45.696;16.076;2023-04-03T05:34:31;3.40;;;0.20;;
72286;SDS011;60221;45.696;16.076;2023-04-03T05:36:58;3.40;;;0.30;;
72286;SDS011;60221;45.696;16.076;2023-04-03T05:39:26;2.90;;;0.10;;
72286;SDS011;60221;45.696;16.076;2023-04-03T05:41:53;2.70;;;0.20;;
72286;SDS011;60221;45.696;16.076;2023-04-03T05:44:20;3.40;;;0.10;;
72286;SDS011;60221;45.696;16.076;2023-04-03T05:46:48;2.80;;;0.30;;
72286;SDS011;60221;45.696;16.076;2023-04-03T05:49:15;5.70;;;1.10;;
72286;SDS011;60221;45.696;16.076;2023-04-03T05:51:42;3.50;;;0.60;;
72286;SDS011;60221;45.696;16.076;2023-04-03T05:54:24;7.00;;;2.00;;
72286;SDS011;60221;45.696;16.076;2023-04-03T05:56:55;6.40;;;2.50;;
72286;SDS011;60221;45.696;16.076;2023-04-03T05:59:22;5.10;;;1.40;;
72286;SDS011;60221;45.696;16.076;2023-04-03T06:01:50;4.70;;;1.00;;
72286;SDS011;60221;45.696;16.076;2023-04-03T06:04:17;4.40;;;0.70;;
72286;SDS011;60221;45.696;16.076;2023-04-03T06:06:46;3.00;;;0.40;;
72286;SDS011;60221;45.696;16.076;2023-04-03T06:09:14;3.00;;;0.50;;
72286;SDS011;60221;45.696;16.076;2023-04-03T06:11:43;5.10;;;1.80;;
72286;SDS011;60221;45.696;16.076;2023-04-03T06:14:09;22.80;;;8.80;;
72286;SDS011;60221;45.696;16.076;2023-04-03T06:16:36;27.40;;;10.30;;
72286;SDS011;60221;45.696;16.076;2023-04-03T06:19:07;14.60;;;6.00;;
72286;SDS011;60221;45.696;16.076;2023-04-03T06:21:35;15.80;;;6.70;;
72286;SDS011;60221;45.696;16.076;2023-04-03T06:24:03;11.40;;;4.80;;
72286;SDS011;60221;45.696;16.076;2023-04-03T06:26:31;22.40;;;11.10;;
72286;SDS011;60221;45.696;16.076;2023-04-03T06:28:58;8.70;;;3.70;;
72286;SDS011;60221;45.696;16.076;2023-04-03T06:31:25;5.40;;;1.40;;
72286;SDS011;60221;45.696;16.076;2023-04-03T06:33:52;3.40;;;0.50;;
72286;SDS011;60221;45.696;16.076;2023-04-03T06:36:19;6.30;;;0.40;;
72286;SDS011;60221;45.696;16.076;2023-04-03T06:38:47;4.90;;;0.40;;
72286;SDS011;60221;45.696;16.076;2023-04-03T06:41:14;3.10;;;0.40;;
72286;SDS011;60221;45.696;16.076;2023-04-03T06:43:41;2.90;;;0.40;;
72286;SDS011;60221;45.696;16.076;2023-04-03T06:46:12;12.40;;;0.80;;
72286;SDS011;60221;45.696;16.076;2023-04-03T06:48:39;2.10;;;0.20;;
72286;SDS011;60221;45.696;16.076;2023-04-03T06:51:08;3.50;;;0.60;;
72286;SDS011;60221;45.696;16.076;2023-04-03T06:53:35;4.60;;;0.20;;
72286;SDS011;60221;45.696;16.076;2023-04-03T06:56:02;3.40;;;0.40;;
72286;SDS011;60221;45.696;16.076;2023-04-03T06:58:29;3.00;;;0.30;;
72286;SDS011;60221;45.696;16.076;2023-04-03T07:00:55;2.50;;;0.30;;
72286;SDS011;60221;45.696;16.076;2023-04-03T07:03:22;2.60;;;0.30;;
72286;SDS011;60221;45.696;16.076;2023-04-03T07:05:50;3.40;;;0.60;;
72286;SDS011;60221;45.696;16.076;2023-04-03T07:08:17;5.00;;;0.40;;
72286;SDS011;60221;45.696;16.076;2023-04-03T07:10:43;3.50;;;0.50;;
72286;SDS011;60221;45.696;16.076;2023-04-03T07:13:10;3.40;;;0.60;;
72286;SDS011;60221;45.696;16.076;2023-04-03T07:15:37;2.80;;;0.20;;
72286;SDS011;60221;45.696;16.076;2023-04-03T07:18:04;2.40;;;0.40;;
72286;SDS011;60221;45.696;16.076;2023-04-03T07:20:32;3.80;;;0.40;;
72286;SDS011;60221;45.696;16.076;2023-04-03T07:22:59;3.60;;;0.30;;
72286;SDS011;60221;45.696;16.076;2023-04-03T07:25:29;3.10;;;0.40;;
72286;SDS011;60221;45.696;16.076;2023-04-03T07:27:56;2.50;;;0.20;;
72286;SDS011;60221;45.696;16.076;2023-04-03T07:30:23;5.30;;;2.00;;
72286;SDS011;60221;45.696;16.076;2023-04-03T07:32:50;4.10;;;0.90;;
72286;SDS011;60221;45.696;16.076;2023-04-03T07:35:18;2.50;;;0.30;;
72286;SDS011;60221;45.696;16.076;2023-04-03T07:37:45;4.10;;;0.30;;
72286;SDS011;60221;45.696;16.076;2023-04-03T07:40:12;4.10;;;0.30;;
72286;SDS011;60221;45.696;16.076;2023-04-03T07:42:39;3.10;;;0.40;;
72286;SDS011;60221;45.696;16.076;2023-04-03T07:45:09;2.30;;;0.30;;
72286;SDS011;60221;45.696;16.076;2023-04-03T07:47:36;2.90;;;0.40;;
72286;SDS011;60221;45.696;16.076;2023-04-03T07:50:03;3.30;;;0.40;;
72286;SDS011;60221;45.696;16.076;2023-04-03T07:52:30;5.40;;;1.40;;
72286;SDS011;60221;45.696;16.076;2023-04-03T07:54:57;3.60;;;1.00;;
72286;SDS011;60221;45.696;16.076;2023-04-03T07:57:23;3.80;;;0.30;;
72286;SDS011;60221;45.696;16.076;2023-04-03T07:59:51;3.10;;;0.40;;
72286;SDS011;60221;45.696;16.076;2023-04-03T08:02:18;7.90;;;0.40;;
72286;SDS011;60221;45.696;16.076;2023-04-03T08:04:45;2.90;;;0.30;;
72286;SDS011;60221;45.696;16.076;2023-04-03T08:07:12;2.70;;;0.30;;
72286;SDS011;60221;45.696;16.076;2023-04-03T08:09:39;6.40;;;2.70;;
72286;SDS011;60221;45.696;16.076;2023-04-03T08:12:05;4.30;;;1.20;;
72286;SDS011;60221;45.696;16.076;2023-04-03T08:14:32;3.60;;;0.50;;
72286;SDS011;60221;45.696;16.076;2023-04-03T08:17:01;3.00;;;0.20;;
72286;SDS011;60221;45.696;16.076;2023-04-03T08:19:29;2.00;;;0.30;;
72286;SDS011;60221;45.696;16.076;2023-04-03T08:21:56;2.30;;;0.20;;
72286;SDS011;60221;45.696;16.076;2023-04-03T08:24:25;3.00;;;0.20;;
72286;SDS011;60221;45.696;16.076;2023-04-03T08:26:51;1.90;;;0.20;;
72286;SDS011;60221;45.696;16.076;2023-04-03T08:29:18;1.70;;;0.10;;
72286;SDS011;60221;45.696;16.076;2023-04-03T08:31:45;2.40;;;0.30;;
72286;SDS011;60221;45.696;16.076;2023-04-03T08:34:13;3.70;;;0.30;;
72286;SDS011;60221;45.696;16.076;2023-04-03T08:36:42;2.60;;;0.50;;
72286;SDS011;60221;45.696;16.076;2023-04-03T08:39:09;13.00;;;6.90;;
72286;SDS011;60221;45.696;16.076;2023-04-03T08:41:38;11.50;;;6.20;;
72286;SDS011;60221;45.696;16.076;2023-04-03T08:46:52;4.30;;;0.40;;
72286;SDS011;60221;45.696;16.076;2023-04-03T08:49:27;2.60;;;0.30;;
72286;SDS011;60221;45.696;16.076;2023-04-03T08:51:56;2.50;;;0.20;;
72286;SDS011;60221;45.696;16.076;2023-04-03T08:54:25;2.50;;;0.20;;
72286;SDS011;60221;45.696;16.076;2023-04-03T08:56:53;3.50;;;0.40;;
72286;SDS011;60221;45.696;16.076;2023-04-03T08:59:24;2.60;;;0.10;;
72286;SDS011;60221;45.696;16.076;2023-04-03T09:01:53;2.00;;;0.20;;
72286;SDS011;60221;45.696;16.076;2023-04-03T09:04:20;1.60;;;0.20;;
72286;SDS011;60221;45.696;16.076;2023-04-03T09:06:52;2.10;;;0.20;;
72286;SDS011;60221;45.696;16.076;2023-04-03T09:09:30;1.70;;;0.10;;
72286;SDS011;60221;45.696;16.076;2023-04-03T09:12:07;1.90;;;0.20;;
72286;SDS011;60221;45.696;16.076;2023-04-03T09:14:42;1.90;;;0.20;;
72286;SDS011;60221;45.696;16.076;2023-04-03T09:17:20;3.00;;;0.30;;
72286;SDS011;60221;45.696;16.076;2023-04-03T09:19:58;3.90;;;0.20;;
72286;SDS011;60221;45.696;16.076;2023-04-03T09:22:27;2.30;;;0.20;;
72286;SDS011;60221;45.696;16.076;2023-04-03T09:24:59;2.40;;;0.30;;
72286;SDS011;60221;45.696;16.076;2023-04-03T09:27:27;4.10;;;0.50;;
72286;SDS011;60221;45.696;16.076;2023-04-03T09:29:55;4.50;;;0.30;;
72286;SDS011;60221;45.696;16.076;2023-04-03T09:34:49;2.40;;;0.30;;
72286;SDS011;60221;45.696;16.076;2023-04-03T09:37:37;5.90;;;0.40;;
72286;SDS011;60221;45.696;16.076;2023-04-03T09:40:12;2.90;;;0.30;;
72286;SDS011;60221;45.696;16.076;2023-04-03T09:42:54;2.90;;;0.60;;
72286;SDS011;60221;45.696;16.076;2023-04-03T09:45:28;4.00;;;0.40;;
72286;SDS011;60221;45.696;16.076;2023-04-03T09:53:31;2.20;;;0.30;;
72286;SDS011;60221;45.696;16.076;2023-04-03T09:55:58;2.30;;;0.30;;
72286;SDS011;60221;45.696;16.076;2023-04-03T09:58:27;4.50;;;0.50;;
72286;SDS011;60221;45.696;16.076;2023-04-03T10:01:23;2.90;;;0.20;;
72286;SDS011;60221;45.696;16.076;2023-04-03T10:06:34;3.80;;;0.30;;
72286;SDS011;60221;45.696;16.076;2023-04-03T10:09:18;2.10;;;0.20;;
72286;SDS011;60221;45.696;16.076;2023-04-03T10:11:59;5.70;;;0.30;;
72286;SDS011;60221;45.696;16.076;2023-04-03T10:14:28;2.90;;;0.40;;
72286;SDS011;60221;45.696;16.076;2023-04-03T10:17:09;2.30;;;0.30;;
72286;SDS011;60221;45.696;16.076;2023-04-03T10:19:41;2.60;;;0.40;;
72286;SDS011;60221;45.696;16.076;2023-04-03T10:29:58;2.60;;;0.50;;
72286;SDS011;60221;45.696;16.076;2023-04-03T10:35:02;2.20;;;0.30;;
72286;SDS011;60221;45.696;16.076;2023-04-03T10:37:35;2.40;;;0.30;;
72286;SDS011;60221;45.696;16.076;2023-04-03T10:42:58;3.30;;;0.30;;
72286;SDS011;60221;45.696;16.076;2023-04-03T10:45:30;2.00;;;0.30;;
72286;SDS011;60221;45.696;16.076;2023-04-03T10:48:15;3.70;;;0.40;;
72286;SDS011;60221;45.696;16.076;2023-04-03T10:50:52;1.80;;;0.20;;
72286;SDS011;60221;45.696;16.076;2023-04-03T11:00:59;12.80;;;3.90;;
72286;SDS011;60221;45.696;16.076;2023-04-03T11:03:32;5.50;;;1.00;;
72286;SDS011;60221;45.696;16.076;2023-04-03T11:06:02;4.30;;;1.60;;
72286;SDS011;60221;45.696;16.076;2023-04-03T11:08:44;2.90;;;0.30;;
72286;SDS011;60221;45.696;16.076;2023-04-03T11:11:16;2.20;;;0.30;;
72286;SDS011;60221;45.696;16.076;2023-04-03T11:16:43;3.70;;;0.60;;
72286;SDS011;60221;45.696;16.076;2023-04-03T11:19:31;11.50;;;3.40;;
72286;SDS011;60221;45.696;16.076;2023-04-03T11:22:06;7.50;;;3.30;;
72286;SDS011;60221;45.696;16.076;2023-04-03T11:24:36;3.90;;;1.00;;
72286;SDS011;60221;45.696;16.076;2023-04-03T11:27:04;3.60;;;0.50;;
72286;SDS011;60221;45.696;16.076;2023-04-03T11:29:35;3.50;;;0.60;;
72286;SDS011;60221;45.696;16.076;2023-04-03T11:34:37;6.70;;;2.30;;
72286;SDS011;60221;45.696;16.076;2023-04-03T11:37:15;8.80;;;3.80;;
72286;SDS011;60221;45.696;16.076;2023-04-03T11:39:50;5.10;;;0.70;;
72286;SDS011;60221;45.696;16.076;2023-04-03T11:42:33;2.60;;;0.30;;
72286;SDS011;60221;45.696;16.076;2023-04-03T11:47:52;10.50;;;3.00;;
72286;SDS011;60221;45.696;16.076;2023-04-03T11:52:59;2.80;;;0.40;;
72286;SDS011;60221;45.696;16.076;2023-04-03T12:16:08;4.20;;;0.80;;
72286;SDS011;60221;45.696;16.076;2023-04-03T12:21:15;2.60;;;0.40;;
72286;SDS011;60221;45.696;16.076;2023-04-03T12:24:32;2.70;;;0.40;;
72286;SDS011;60221;45.696;16.076;2023-04-03T12:34:24;3.40;;;0.30;;
72286;SDS011;60221;45.696;16.076;2023-04-03T12:42:04;3.80;;;0.70;;
72286;SDS011;60221;45.696;16.076;2023-04-03T12:44:38;3.40;;;0.50;;
72286;SDS011;60221;45.696;16.076;2023-04-03T12:47:15;2.80;;;0.40;;
72286;SDS011;60221;45.696;16.076;2023-04-03T12:49:43;4.50;;;0.70;;
72286;SDS011;60221;45.696;16.076;2023-04-03T12:52:19;3.90;;;0.80;;
72286;SDS011;60221;45.696;16.076;2023-04-03T12:54:46;4.60;;;0.50;;
72286;SDS011;60221;45.696;16.076;2023-04-03T12:57:21;2.80;;;0.40;;
72286;SDS011;60221;45.696;16.076;2023-04-03T12:59:50;4.30;;;0.50;;
72286;SDS011;60221;45.696;16.076;2023-04-03T13:02:24;2.70;;;0.40;;
72286;SDS011;60221;45.696;16.076;2023-04-03T13:04:53;3.90;;;0.60;;
72286;SDS011;60221;45.696;16.076;2023-04-03T13:07:27;2.70;;;0.40;;
72286;SDS011;60221;45.696;16.076;2023-04-03T13:09:58;3.00;;;0.50;;
72286;SDS011;60221;45.696;16.076;2023-04-03T13:12:26;3.90;;;0.50;;
72286;SDS011;60221;45.696;16.076;2023-04-03T13:14:55;3.50;;;0.40;;
72286;SDS011;60221;45.696;16.076;2023-04-03T13:17:24;3.80;;;0.60;;
72286;SDS011;60221;45.696;16.076;2023-04-03T13:19:51;4.10;;;0.50;;
72286;SDS011;60221;45.696;16.076;2023-04-03T13:22:35;2.50;;;0.40;;
72286;SDS011;60221;45.696;16.076;2023-04-03T13:25:06;2.90;;;0.30;;
72286;SDS011;60221;45.696;16.076;2023-04-03T13:27:33;3.00;;;0.30;;
72286;SDS011;60221;45.696;16.076;2023-04-03T13:30:01;3.00;;;0.40;;
72286;SDS011;60221;45.696;16.076;2023-04-03T13:32:29;2.80;;;0.50;;
72286;SDS011;60221;45.696;16.076;2023-04-03T13:34:56;3.30;;;0.20;;
72286;SDS011;60221;45.696;16.076;2023-04-03T13:37:32;5.80;;;0.40;;
72286;SDS011;60221;45.696;16.076;2023-04-03T13:40:08;5.60;;;0.40;;
72286;SDS011;60221;45.696;16.076;2023-04-03T13:43:02;3.70;;;0.60;;
72286;SDS011;60221;45.696;16.076;2023-04-03T13:45:30;5.00;;;0.50;;
72286;SDS011;60221;45.696;16.076;2023-04-03T13:48:08;2.80;;;0.40;;
72286;SDS011;60221;45.696;16.076;2023-04-03T13:50:57;2.50;;;0.30;;
72286;SDS011;60221;45.696;16.076;2023-04-03T13:53:25;4.30;;;0.50;;
72286;SDS011;60221;45.696;16.076;2023-04-03T13:55:54;5.50;;;1.00;;
72286;SDS011;60221;45.696;16.076;2023-04-03T13:58:26;3.60;;;0.60;;
72286;SDS011;60221;45.696;16.076;2023-04-03T14:00:55;6.20;;;1.20;;
72286;SDS011;60221;45.696;16.076;2023-04-03T14:05:49;4.50;;;0.70;;
72286;SDS011;60221;45.696;16.076;2023-04-03T14:08:17;3.40;;;0.40;;
72286;SDS011;60221;45.696;16.076;2023-04-03T14:10:49;5.20;;;0.50;;
72286;SDS011;60221;45.696;16.076;2023-04-03T14:13:18;2.60;;;0.50;;
72286;SDS011;60221;45.696;16.076;2023-04-03T14:15:47;4.20;;;0.80;;
72286;SDS011;60221;45.696;16.076;2023-04-03T14:18:16;2.90;;;0.30;;
72286;SDS011;60221;45.696;16.076;2023-04-03T14:20:43;3.60;;;0.70;;
72286;SDS011;60221;45.696;16.076;2023-04-03T14:23:10;3.80;;;0.70;;
72286;SDS011;60221;45.696;16.076;2023-04-03T14:25:39;3.70;;;0.60;;
72286;SDS011;60221;45.696;16.076;2023-04-03T14:28:14;3.80;;;0.60;;
72286;SDS011;60221;45.696;16.076;2023-04-03T14:30:41;2.90;;;0.60;;
72286;SDS011;60221;45.696;16.076;2023-04-03T14:33:10;3.20;;;0.50;;
72286;SDS011;60221;45.696;16.076;2023-04-03T14:35:37;3.00;;;0.30;;
72286;SDS011;60221;45.696;16.076;2023-04-03T14:38:05;3.80;;;0.70;;
72286;SDS011;60221;45.696;16.076;2023-04-03T14:40:37;3.50;;;0.40;;
72286;SDS011;60221;45.696;16.076;2023-04-03T14:43:05;3.70;;;0.50;;
72286;SDS011;60221;45.696;16.076;2023-04-03T14:45:32;15.30;;;3.90;;
72286;SDS011;60221;45.696;16.076;2023-04-03T14:47:59;10.80;;;1.70;;
72286;SDS011;60221;45.696;16.076;2023-04-03T14:50:26;16.00;;;4.00;;
72286;SDS011;60221;45.696;16.076;2023-04-03T14:52:54;6.00;;;2.00;;
72286;SDS011;60221;45.696;16.076;2023-04-03T14:55:22;4.30;;;0.80;;
72286;SDS011;60221;45.696;16.076;2023-04-03T14:57:49;4.90;;;0.60;;
72286;SDS011;60221;45.696;16.076;2023-04-03T15:00:18;4.30;;;0.70;;
72286;SDS011;60221;45.696;16.076;2023-04-03T15:02:45;3.70;;;0.40;;
72286;SDS011;60221;45.696;16.076;2023-04-03T15:05:13;3.90;;;0.60;;
72286;SDS011;60221;45.696;16.076;2023-04-03T15:07:41;4.10;;;0.80;;
72286;SDS011;60221;45.696;16.076;2023-04-03T15:12:42;3.30;;;0.50;;
72286;SDS011;60221;45.696;16.076;2023-04-03T15:15:09;5.30;;;0.70;;
72286;SDS011;60221;45.696;16.076;2023-04-03T15:17:36;3.60;;;0.70;;
72286;SDS011;60221;45.696;16.076;2023-04-03T15:20:05;3.50;;;0.50;;
72286;SDS011;60221;45.696;16.076;2023-04-03T15:22:37;3.60;;;0.70;;
72286;SDS011;60221;45.696;16.076;2023-04-03T15:25:04;3.70;;;0.40;;
72286;SDS011;60221;45.696;16.076;2023-04-03T15:27:31;3.50;;;0.60;;
72286;SDS011;60221;45.696;16.076;2023-04-03T15:29:58;3.80;;;0.20;;
72286;SDS011;60221;45.696;16.076;2023-04-03T15:32:25;7.20;;;1.60;;
72286;SDS011;60221;45.696;16.076;2023-04-03T15:34:53;4.80;;;0.70;;
72286;SDS011;60221;45.696;16.076;2023-04-03T15:37:24;3.70;;;0.50;;
72286;SDS011;60221;45.696;16.076;2023-04-03T15:39:51;3.20;;;0.30;;
72286;SDS011;60221;45.696;16.076;2023-04-03T15:42:18;4.00;;;0.40;;
72286;SDS011;60221;45.696;16.076;2023-04-03T15:44:45;3.10;;;0.60;;
72286;SDS011;60221;45.696;16.076;2023-04-03T15:47:11;6.60;;;0.70;;
72286;SDS011;60221;45.696;16.076;2023-04-03T15:49:38;3.70;;;0.60;;
72286;SDS011;60221;45.696;16.076;2023-04-03T15:52:05;4.00;;;0.60;;
72286;SDS011;60221;45.696;16.076;2023-04-03T15:54:32;5.50;;;0.90;;
72286;SDS011;60221;45.696;16.076;2023-04-03T15:56:59;4.40;;;0.60;;
72286;SDS011;60221;45.696;16.076;2023-04-03T15:59:26;4.20;;;0.80;;
72286;SDS011;60221;45.696;16.076;2023-04-03T16:01:55;2.70;;;0.60;;
72286;SDS011;60221;45.696;16.076;2023-04-03T16:04:22;3.10;;;0.50;;
72286;SDS011;60221;45.696;16.076;2023-04-03T16:06:49;2.30;;;0.30;;
72286;SDS011;60221;45.696;16.076;2023-04-03T16:09:16;2.10;;;0.40;;
72286;SDS011;60221;45.696;16.076;2023-04-03T16:11:43;4.00;;;0.50;;
72286;SDS011;60221;45.696;16.076;2023-04-03T16:14:10;3.50;;;0.40;;
72286;SDS011;60221;45.696;16.076;2023-04-03T16:16:37;2.90;;;0.60;;
72286;SDS011;60221;45.696;16.076;2023-04-03T16:19:04;4.10;;;0.70;;